createdAt,value
2023-04-30T00:00:54.296Z,41.17
2023-04-30T00:01:54.325Z,41.16
2023-04-30T00:02:54.336Z,41.16
2023-04-30T00:03:54.351Z,41.18
2023-04-30T00:04:54.281Z,41.22
2023-04-30T00:05:54.372Z,41.20
2023-04-30T00:06:54.248Z,41.22
2023-04-30T00:07:54.227Z,41.21
2023-04-30T00:08:54.222Z,41.19
2023-04-30T00:09:54.405Z,41.20
2023-04-30T00:10:54.206Z,41.19
2023-04-30T00:11:54.206Z,41.20
2023-04-30T00:12:54.188Z,41.21
2023-04-30T00:13:54.173Z,41.18
2023-04-30T00:14:54.166Z,41.18
2023-04-30T00:15:54.217Z,41.19
2023-04-30T00:16:54.153Z,41.22
2023-04-30T00:17:54.163Z,41.21
2023-04-30T00:18:54.134Z,41.21
2023-04-30T00:19:54.299Z,41.23
2023-04-30T00:20:54.111Z,41.21
2023-04-30T00:21:54.104Z,41.22
2023-04-30T00:22:54.095Z,41.22
2023-04-30T00:23:54.108Z,41.24
2023-04-30T00:24:54.087Z,41.22
2023-04-30T00:25:54.078Z,41.21
2023-04-30T00:26:54.062Z,41.20
2023-04-30T00:27:54.050Z,41.21
2023-04-30T00:28:54.042Z,41.21
2023-04-30T00:29:54.173Z,41.23
2023-04-30T00:30:54.032Z,41.23
2023-04-30T00:31:54.046Z,41.22
2023-04-30T00:32:54.046Z,41.21
2023-04-30T00:33:54.002Z,41.21
2023-04-30T00:34:53.991Z,41.23
2023-04-30T00:35:53.981Z,41.22
2023-04-30T00:36:53.957Z,41.22
2023-04-30T00:37:53.958Z,41.23
2023-04-30T00:38:53.942Z,41.21
2023-04-30T00:39:54.156Z,41.24
2023-04-30T00:40:53.939Z,41.22
2023-04-30T00:41:53.932Z,41.23
2023-04-30T00:42:53.931Z,41.24
2023-04-30T00:43:53.925Z,41.22
2023-04-30T00:44:53.930Z,41.22
2023-04-30T00:45:53.956Z,41.20
2023-04-30T00:46:53.909Z,41.22
2023-04-30T00:47:53.901Z,41.22
2023-04-30T00:48:53.897Z,41.22
2023-04-30T00:49:54.241Z,41.20
2023-04-30T00:50:53.879Z,41.22
2023-04-30T00:51:53.863Z,41.21
2023-04-30T00:52:53.854Z,41.24
2023-04-30T00:53:53.934Z,41.24
2023-04-30T00:54:53.840Z,41.23
2023-04-30T00:55:53.826Z,41.22
2023-04-30T00:56:53.811Z,41.21
2023-04-30T00:57:53.806Z,41.22
2023-04-30T00:58:53.796Z,41.20
2023-04-30T00:59:54.052Z,41.20
2023-04-30T01:00:53.808Z,41.22
2023-04-30T01:01:53.773Z,41.21
2023-04-30T01:02:53.904Z,41.23
2023-04-30T01:03:53.770Z,41.22
2023-04-30T01:04:53.744Z,41.20
2023-04-30T01:05:53.884Z,41.21
2023-04-30T01:06:53.724Z,41.20
2023-04-30T01:07:53.725Z,41.19
2023-04-30T01:08:53.704Z,41.21
2023-04-30T01:09:53.928Z,41.20
2023-04-30T01:10:53.691Z,41.20
2023-04-30T01:11:53.697Z,41.21
2023-04-30T01:12:53.690Z,41.22
2023-04-30T01:13:53.677Z,41.18
2023-04-30T01:14:53.677Z,41.23
2023-04-30T01:15:53.697Z,41.22
2023-04-30T01:16:53.648Z,41.18
2023-04-30T01:17:53.748Z,41.21
2023-04-30T01:18:53.659Z,41.20
2023-04-30T01:19:53.913Z,41.19
2023-04-30T01:20:53.618Z,41.20
2023-04-30T01:21:53.608Z,41.19
2023-04-30T01:22:53.610Z,41.18
2023-04-30T01:23:53.587Z,41.17
2023-04-30T01:24:53.594Z,41.20
2023-04-30T01:25:53.605Z,41.19
2023-04-30T01:26:53.584Z,41.21
2023-04-30T01:27:53.569Z,41.18
2023-04-30T01:28:53.570Z,41.19
2023-04-30T01:29:54.099Z,41.21
2023-04-30T01:30:53.576Z,41.21
2023-04-30T01:31:53.545Z,41.19
2023-04-30T01:32:53.589Z,41.16
2023-04-30T01:33:53.538Z,41.20
2023-04-30T01:34:53.536Z,41.22
2023-04-30T01:35:53.533Z,41.20
2023-04-30T01:36:53.537Z,41.18
2023-04-30T01:37:53.525Z,41.16
2023-04-30T01:38:53.515Z,41.17
2023-04-30T01:39:53.717Z,41.19
2023-04-30T01:40:53.509Z,41.20
2023-04-30T01:41:53.511Z,41.19
2023-04-30T01:42:53.503Z,41.18
2023-04-30T01:43:53.493Z,41.20
2023-04-30T01:44:53.477Z,41.18
2023-04-30T01:45:53.509Z,41.19
2023-04-30T01:46:53.473Z,41.19
2023-04-30T01:47:53.511Z,41.21
2023-04-30T01:48:53.459Z,41.19
2023-04-30T01:49:53.639Z,41.20
2023-04-30T01:50:53.448Z,41.19
2023-04-30T01:51:53.452Z,41.20
2023-04-30T01:52:53.458Z,41.18
2023-04-30T01:53:53.453Z,41.20
2023-04-30T01:54:53.447Z,41.18
2023-04-30T01:55:53.439Z,41.18
2023-04-30T01:56:53.441Z,41.16
2023-04-30T01:57:53.434Z,41.20
2023-04-30T01:58:53.437Z,41.16
2023-04-30T01:59:54.395Z,41.19
2023-04-30T02:00:53.423Z,41.19
2023-04-30T02:01:53.510Z,41.17
2023-04-30T02:02:53.471Z,41.18
2023-04-30T02:03:53.516Z,41.16
2023-04-30T02:04:53.395Z,41.19
2023-04-30T02:05:53.434Z,41.18
2023-04-30T02:06:53.381Z,41.17
2023-04-30T02:07:53.926Z,41.16
2023-04-30T02:08:53.361Z,41.16
2023-04-30T02:09:53.479Z,41.17
2023-04-30T02:10:53.341Z,41.17
2023-04-30T02:11:53.337Z,41.15
2023-04-30T02:12:53.329Z,41.18
2023-04-30T02:13:53.317Z,41.17
2023-04-30T02:14:53.307Z,41.18
2023-04-30T02:15:53.315Z,41.16
2023-04-30T02:16:53.316Z,41.15
2023-04-30T02:17:53.341Z,41.17
2023-04-30T02:18:53.302Z,41.17
2023-04-30T02:19:53.491Z,41.17
2023-04-30T02:20:53.293Z,41.16
2023-04-30T02:21:53.283Z,41.17
2023-04-30T02:22:53.291Z,41.16
2023-04-30T02:23:53.278Z,41.13
2023-04-30T02:24:53.272Z,41.16
2023-04-30T02:25:53.272Z,41.16
2023-04-30T02:26:53.779Z,41.16
2023-04-30T02:27:53.256Z,41.16
2023-04-30T02:28:53.251Z,41.16
2023-04-30T02:29:53.367Z,41.16
2023-04-30T02:30:53.243Z,41.17
2023-04-30T02:31:53.259Z,41.16
2023-04-30T02:32:53.314Z,41.18
2023-04-30T02:33:53.238Z,41.15
2023-04-30T02:34:53.238Z,41.17
2023-04-30T02:35:53.227Z,41.18
2023-04-30T02:36:53.243Z,41.16
2023-04-30T02:37:53.232Z,41.19
2023-04-30T02:38:53.222Z,41.17
2023-04-30T02:39:53.413Z,41.18
2023-04-30T02:40:53.209Z,41.15
2023-04-30T02:41:53.209Z,41.15
2023-04-30T02:42:53.209Z,41.17
2023-04-30T02:43:53.199Z,41.17
2023-04-30T02:44:53.208Z,41.17
2023-04-30T02:45:53.216Z,41.16
2023-04-30T02:46:53.185Z,41.18
2023-04-30T02:47:53.270Z,41.17
2023-04-30T02:48:53.181Z,41.14
2023-04-30T02:49:53.383Z,41.16
2023-04-30T02:50:53.179Z,41.16
2023-04-30T02:51:53.186Z,41.16
2023-04-30T02:52:53.188Z,41.18
2023-04-30T02:53:53.177Z,41.16
2023-04-30T02:54:53.169Z,41.15
2023-04-30T02:55:53.174Z,41.18
2023-04-30T02:56:53.175Z,41.18
2023-04-30T02:57:53.179Z,41.14
2023-04-30T02:58:53.171Z,41.13
2023-04-30T02:59:53.547Z,41.17
2023-04-30T03:00:53.211Z,41.13
2023-04-30T03:01:53.164Z,41.15
2023-04-30T03:02:53.261Z,41.16
2023-04-30T03:03:53.157Z,41.17
2023-04-30T03:04:53.158Z,41.13
2023-04-30T03:05:53.146Z,41.14
2023-04-30T03:06:53.133Z,41.14
2023-04-30T03:07:53.126Z,41.16
2023-04-30T03:08:53.125Z,41.12
2023-04-30T03:09:53.306Z,41.15
2023-04-30T03:10:53.110Z,41.13
2023-04-30T03:11:53.108Z,41.15
2023-04-30T03:12:53.103Z,41.16
2023-04-30T03:13:53.102Z,41.14
2023-04-30T03:14:53.108Z,41.14
2023-04-30T03:15:53.122Z,41.16
2023-04-30T03:16:53.103Z,41.13
2023-04-30T03:17:53.135Z,41.12
2023-04-30T03:18:53.101Z,41.12
2023-04-30T03:19:53.426Z,41.14
2023-04-30T03:20:53.098Z,41.15
2023-04-30T03:21:53.104Z,41.13
2023-04-30T03:22:53.104Z,41.17
2023-04-30T03:23:53.101Z,41.15
2023-04-30T03:24:53.186Z,41.15
2023-04-30T03:25:53.088Z,41.12
2023-04-30T03:26:53.093Z,41.15
2023-04-30T03:27:53.100Z,41.13
2023-04-30T03:28:53.093Z,41.14
2023-04-30T03:29:53.332Z,41.12
2023-04-30T03:30:53.064Z,41.12
2023-04-30T03:31:53.186Z,41.12
2023-04-30T03:32:53.121Z,41.12
2023-04-30T03:33:53.107Z,41.12
2023-04-30T03:34:53.048Z,41.12
2023-04-30T03:35:53.056Z,41.13
2023-04-30T03:36:53.046Z,41.14
2023-04-30T03:37:53.044Z,41.10
2023-04-30T03:38:53.033Z,41.12
2023-04-30T03:39:53.302Z,41.12
2023-04-30T03:40:53.029Z,41.14
2023-04-30T03:41:53.038Z,41.15
2023-04-30T03:42:53.032Z,41.12
2023-04-30T03:43:53.015Z,41.15
2023-04-30T03:44:53.019Z,41.14
2023-04-30T03:45:53.115Z,41.11
2023-04-30T03:46:53.020Z,41.11
2023-04-30T03:47:53.075Z,41.11
2023-04-30T03:48:52.994Z,41.11
2023-04-30T03:49:53.180Z,41.11
2023-04-30T03:50:53.014Z,41.10
2023-04-30T03:51:53.005Z,41.10
2023-04-30T03:52:53.002Z,41.14
2023-04-30T03:53:53.005Z,41.12
2023-04-30T03:54:53.069Z,41.12
2023-04-30T03:55:52.983Z,41.11
2023-04-30T03:56:53.008Z,41.09
2023-04-30T03:57:52.981Z,41.12
2023-04-30T03:58:52.967Z,41.12
2023-04-30T03:59:53.114Z,41.13
2023-04-30T04:00:52.964Z,41.10
2023-04-30T04:01:52.996Z,41.12
2023-04-30T04:02:52.971Z,41.11
2023-04-30T04:03:53.008Z,41.12
2023-04-30T04:04:52.935Z,41.11
2023-04-30T04:05:52.919Z,41.10
2023-04-30T04:06:52.929Z,41.08
2023-04-30T04:07:52.908Z,41.11
2023-04-30T04:08:52.906Z,41.09
2023-04-30T04:09:53.085Z,41.10
2023-04-30T04:10:52.895Z,41.09
2023-04-30T04:11:52.893Z,41.11
2023-04-30T04:12:52.893Z,41.11
2023-04-30T04:13:52.891Z,41.09
2023-04-30T04:14:52.889Z,41.09
2023-04-30T04:15:52.913Z,41.07
2023-04-30T04:16:52.876Z,41.11
2023-04-30T04:17:52.924Z,41.11
2023-04-30T04:18:52.870Z,41.09
2023-04-30T04:19:53.105Z,41.11
2023-04-30T04:20:52.851Z,41.07
2023-04-30T04:21:52.845Z,41.09
2023-04-30T04:22:52.840Z,41.11
2023-04-30T04:23:52.832Z,41.11
2023-04-30T04:24:52.824Z,41.10
2023-04-30T04:25:52.826Z,41.07
2023-04-30T04:26:52.805Z,41.07
2023-04-30T04:27:52.827Z,41.09
2023-04-30T04:28:52.790Z,41.08
2023-04-30T04:29:52.883Z,41.05
2023-04-30T04:30:52.777Z,41.07
2023-04-30T04:31:52.827Z,41.08
2023-04-30T04:32:52.789Z,41.05
2023-04-30T04:33:52.746Z,41.08
2023-04-30T04:34:52.737Z,41.08
2023-04-30T04:35:52.734Z,41.09
2023-04-30T04:36:52.730Z,41.08
2023-04-30T04:37:52.732Z,41.08
2023-04-30T04:38:52.722Z,41.10
2023-04-30T04:39:52.855Z,41.07
2023-04-30T04:40:52.708Z,41.08
2023-04-30T04:41:52.696Z,41.08
2023-04-30T04:42:52.685Z,41.05
2023-04-30T04:43:52.687Z,41.08
2023-04-30T04:44:52.721Z,41.07
2023-04-30T04:45:52.715Z,41.05
2023-04-30T04:46:52.749Z,41.07
2023-04-30T04:47:52.754Z,41.05
2023-04-30T04:48:52.676Z,41.05
2023-04-30T04:49:52.920Z,41.05
2023-04-30T04:50:52.673Z,41.05
2023-04-30T04:51:52.661Z,41.04
2023-04-30T04:52:52.651Z,41.04
2023-04-30T04:53:52.646Z,41.06
2023-04-30T04:54:52.639Z,41.06
2023-04-30T04:55:52.632Z,41.03
2023-04-30T04:56:52.647Z,41.07
2023-04-30T04:57:52.620Z,41.03
2023-04-30T04:58:52.624Z,41.06
2023-04-30T04:59:52.910Z,41.05
2023-04-30T05:00:52.590Z,41.04
2023-04-30T05:01:52.658Z,41.04
2023-04-30T05:02:52.700Z,41.05
2023-04-30T05:03:52.744Z,41.08
2023-04-30T05:04:52.576Z,41.04
2023-04-30T05:05:52.558Z,41.03
2023-04-30T05:06:52.555Z,41.05
2023-04-30T05:07:52.720Z,41.02
2023-04-30T05:08:52.537Z,41.04
2023-04-30T05:09:52.818Z,41.03
2023-04-30T05:10:52.530Z,41.03
2023-04-30T05:11:52.532Z,41.03
2023-04-30T05:12:52.512Z,41.03
2023-04-30T05:13:52.510Z,41.03
2023-04-30T05:14:52.499Z,41.06
2023-04-30T05:15:52.574Z,41.05
2023-04-30T05:16:52.472Z,41.03
2023-04-30T05:17:52.483Z,41.03
2023-04-30T05:18:52.502Z,41.01
2023-04-30T05:19:52.432Z,41.02
2023-04-30T05:20:52.428Z,41.01
2023-04-30T05:21:52.413Z,41.00
2023-04-30T05:22:52.461Z,41.03
2023-04-30T05:23:52.406Z,41.02
2023-04-30T05:24:52.402Z,41.02
2023-04-30T05:25:52.400Z,41.03
2023-04-30T05:26:52.398Z,41.03
2023-04-30T05:27:52.391Z,41.01
2023-04-30T05:28:52.453Z,41.02
2023-04-30T05:29:52.609Z,40.99
2023-04-30T05:30:52.383Z,41.00
2023-04-30T05:31:52.468Z,41.03
2023-04-30T05:32:52.542Z,41.03
2023-04-30T05:33:52.354Z,41.00
2023-04-30T05:34:52.363Z,41.01
2023-04-30T05:35:52.366Z,41.01
2023-04-30T05:36:52.359Z,41.00
2023-04-30T05:37:52.366Z,41.00
2023-04-30T05:38:52.352Z,40.98
2023-04-30T05:39:52.624Z,41.03
2023-04-30T05:40:52.361Z,40.99
2023-04-30T05:41:53.504Z,40.99
2023-04-30T05:42:52.315Z,41.00
2023-04-30T05:43:52.309Z,40.99
2023-04-30T05:44:52.302Z,41.00
2023-04-30T05:45:52.345Z,41.00
2023-04-30T05:46:52.363Z,40.99
2023-04-30T05:47:52.324Z,40.99
2023-04-30T05:48:52.284Z,40.99
2023-04-30T05:49:52.418Z,40.99
2023-04-30T05:50:52.274Z,41.00
2023-04-30T05:51:52.286Z,41.00
2023-04-30T05:52:52.263Z,40.98
2023-04-30T05:53:52.254Z,40.97
2023-04-30T05:54:52.245Z,40.97
2023-04-30T05:55:52.241Z,41.00
2023-04-30T05:56:52.232Z,40.96
2023-04-30T05:57:52.226Z,40.97
2023-04-30T05:58:52.222Z,40.97
2023-04-30T05:59:52.308Z,40.98
2023-04-30T06:00:52.217Z,41.00
2023-04-30T06:01:52.237Z,40.99
2023-04-30T06:02:52.240Z,40.97
2023-04-30T06:03:52.188Z,40.95
2023-04-30T06:04:52.214Z,40.96
2023-04-30T06:05:52.169Z,40.99
2023-04-30T06:06:52.227Z,40.98
2023-04-30T06:07:52.151Z,40.99
2023-04-30T06:08:52.149Z,40.97
2023-04-30T06:09:52.128Z,40.97
2023-04-30T06:10:52.125Z,41.00
2023-04-30T06:11:52.122Z,40.98
2023-04-30T06:12:52.114Z,40.97
2023-04-30T06:13:52.093Z,40.99
2023-04-30T06:14:52.079Z,40.95
2023-04-30T06:15:52.083Z,40.98
2023-04-30T06:16:52.230Z,40.99
2023-04-30T06:17:52.098Z,40.98
2023-04-30T06:18:53.700Z,40.97
2023-04-30T06:19:52.090Z,40.97
2023-04-30T06:20:52.056Z,40.98
2023-04-30T06:21:52.885Z,40.97
2023-04-30T06:22:52.189Z,40.97
2023-04-30T06:23:52.147Z,40.96
2023-04-30T06:24:52.051Z,40.98
2023-04-30T06:25:52.053Z,40.94
2023-04-30T06:26:52.038Z,40.98
2023-04-30T06:27:52.035Z,40.98
2023-04-30T06:28:52.021Z,40.96
2023-04-30T06:29:52.244Z,40.98
2023-04-30T06:30:52.065Z,40.99
2023-04-30T06:31:52.071Z,40.98
2023-04-30T06:32:52.026Z,40.96
2023-04-30T06:33:51.997Z,40.95
2023-04-30T06:34:52.012Z,40.96
2023-04-30T06:35:51.992Z,40.96
2023-04-30T06:36:51.981Z,40.96
2023-04-30T06:37:51.968Z,40.95
2023-04-30T06:38:51.981Z,40.98
2023-04-30T06:39:52.028Z,40.93
2023-04-30T06:40:51.954Z,40.96
2023-04-30T06:41:52.023Z,40.95
2023-04-30T06:42:51.937Z,40.94
2023-04-30T06:43:51.936Z,40.96
2023-04-30T06:44:51.934Z,40.94
2023-04-30T06:45:51.931Z,40.96
2023-04-30T06:46:51.915Z,40.97
2023-04-30T06:47:52.081Z,40.96
2023-04-30T06:48:51.927Z,40.97
2023-04-30T06:49:51.908Z,40.96
2023-04-30T06:50:51.906Z,40.98
2023-04-30T06:51:51.896Z,40.96
2023-04-30T06:52:51.883Z,40.96
2023-04-30T06:53:51.867Z,40.94
2023-04-30T06:54:51.861Z,40.97
2023-04-30T06:55:51.855Z,40.96
2023-04-30T06:56:51.846Z,40.95
2023-04-30T06:57:51.834Z,40.95
2023-04-30T06:58:51.867Z,40.92
2023-04-30T06:59:52.008Z,40.96
2023-04-30T07:00:51.830Z,40.96
2023-04-30T07:01:51.840Z,40.94
2023-04-30T07:02:51.927Z,40.95
2023-04-30T07:03:51.936Z,40.94
2023-04-30T07:04:51.776Z,40.94
2023-04-30T07:05:51.763Z,40.93
2023-04-30T07:06:51.757Z,40.93
2023-04-30T07:07:51.744Z,40.92
2023-04-30T07:08:51.738Z,40.93
2023-04-30T07:09:51.943Z,40.95
2023-04-30T07:10:51.736Z,40.92
2023-04-30T07:11:51.721Z,40.93
2023-04-30T07:12:51.721Z,40.94
2023-04-30T07:13:51.711Z,40.92
2023-04-30T07:14:51.696Z,40.96
2023-04-30T07:15:51.807Z,40.94
2023-04-30T07:16:51.699Z,40.94
2023-04-30T07:17:51.806Z,40.95
2023-04-30T07:18:51.666Z,40.93
2023-04-30T07:19:51.732Z,40.92
2023-04-30T07:20:51.693Z,40.91
2023-04-30T07:21:51.653Z,40.92
2023-04-30T07:22:51.662Z,40.93
2023-04-30T07:23:51.683Z,40.94
2023-04-30T07:24:51.624Z,40.93
2023-04-30T07:25:51.615Z,40.92
2023-04-30T07:26:51.607Z,40.93
2023-04-30T07:27:51.591Z,40.93
2023-04-30T07:28:51.584Z,40.95
2023-04-30T07:29:51.580Z,40.95
2023-04-30T07:30:51.573Z,40.93
2023-04-30T07:31:51.573Z,40.92
2023-04-30T07:32:51.605Z,40.90
2023-04-30T07:33:51.540Z,40.91
2023-04-30T07:34:51.540Z,40.89
2023-04-30T07:35:51.520Z,40.92
2023-04-30T07:36:51.516Z,40.93
2023-04-30T07:37:51.506Z,40.87
2023-04-30T07:38:51.500Z,40.90
2023-04-30T07:39:51.496Z,40.92
2023-04-30T07:40:51.506Z,40.92
2023-04-30T07:41:51.490Z,40.92
2023-04-30T07:42:51.495Z,40.88
2023-04-30T07:43:51.481Z,40.89
2023-04-30T07:44:51.483Z,40.92
2023-04-30T07:45:51.504Z,40.91
2023-04-30T07:46:51.464Z,40.93
2023-04-30T07:47:51.470Z,40.92
2023-04-30T07:48:51.463Z,40.91
2023-04-30T07:49:51.454Z,40.90
2023-04-30T07:50:52.764Z,40.90
2023-04-30T07:51:51.439Z,40.88
2023-04-30T07:52:51.423Z,40.91
2023-04-30T07:53:51.427Z,40.87
2023-04-30T07:54:51.419Z,40.91
2023-04-30T07:55:51.419Z,40.90
2023-04-30T07:56:51.408Z,40.90
2023-04-30T07:57:51.409Z,40.89
2023-04-30T07:58:51.403Z,40.87
2023-04-30T07:59:53.085Z,40.89
2023-04-30T08:00:51.401Z,40.89
2023-04-30T08:01:51.409Z,40.84
2023-04-30T08:02:51.596Z,40.84
2023-04-30T08:03:51.520Z,40.88
2023-04-30T08:04:51.381Z,40.87
2023-04-30T08:05:51.374Z,40.86
2023-04-30T08:06:51.385Z,40.85
2023-04-30T08:07:51.366Z,40.86
2023-04-30T08:08:51.360Z,40.84
2023-04-30T08:09:51.363Z,40.84
2023-04-30T08:10:51.364Z,40.83
2023-04-30T08:11:51.341Z,40.89
2023-04-30T08:12:51.378Z,40.88
2023-04-30T08:13:51.341Z,40.85
2023-04-30T08:14:51.338Z,40.85
2023-04-30T08:15:51.340Z,40.87
2023-04-30T08:16:51.375Z,40.85
2023-04-30T08:17:51.419Z,40.83
2023-04-30T08:18:51.307Z,40.86
2023-04-30T08:19:51.312Z,40.84
2023-04-30T08:20:51.307Z,40.85
2023-04-30T08:21:51.292Z,40.85
2023-04-30T08:22:51.293Z,40.86
2023-04-30T08:23:51.294Z,40.87
2023-04-30T08:24:51.276Z,40.87
2023-04-30T08:25:51.273Z,40.84
2023-04-30T08:26:52.915Z,40.91
2023-04-30T08:27:51.250Z,40.85
2023-04-30T08:28:51.255Z,40.87
2023-04-30T08:29:51.244Z,40.84
2023-04-30T08:30:51.245Z,40.84
2023-04-30T08:31:51.254Z,40.82
2023-04-30T08:32:51.326Z,40.84
2023-04-30T08:33:51.223Z,40.84
2023-04-30T08:34:51.216Z,40.85
2023-04-30T08:35:51.211Z,40.82
2023-04-30T08:36:51.212Z,40.82
2023-04-30T08:37:51.211Z,40.83
2023-04-30T08:38:51.204Z,40.86
2023-04-30T08:39:51.197Z,40.84
2023-04-30T08:40:52.128Z,40.84
2023-04-30T08:41:51.184Z,40.84
2023-04-30T08:42:51.182Z,40.84
2023-04-30T08:43:51.180Z,40.85
2023-04-30T08:44:51.180Z,40.85
2023-04-30T08:45:51.211Z,40.85
2023-04-30T08:46:51.162Z,40.84
2023-04-30T08:47:51.253Z,40.84
2023-04-30T08:48:51.146Z,40.83
2023-04-30T08:49:51.146Z,40.84
2023-04-30T08:50:51.153Z,40.85
2023-04-30T08:51:51.138Z,40.85
2023-04-30T08:52:51.135Z,40.83
2023-04-30T08:53:51.123Z,40.84
2023-04-30T08:54:51.121Z,40.84
2023-04-30T08:55:51.130Z,40.81
2023-04-30T08:56:51.120Z,40.86
2023-04-30T08:57:51.130Z,40.84
2023-04-30T08:58:51.106Z,40.85
2023-04-30T08:59:51.109Z,40.86
2023-04-30T09:00:51.101Z,40.86
2023-04-30T09:01:53.064Z,40.86
2023-04-30T09:02:51.115Z,40.89
2023-04-30T09:03:51.109Z,40.88
2023-04-30T09:04:51.011Z,40.84
2023-04-30T09:05:50.996Z,40.85
2023-04-30T09:06:50.991Z,40.87
2023-04-30T09:08:01.563Z,40.86
2023-04-30T09:08:51.905Z,40.89
2023-04-30T09:09:50.880Z,40.89
2023-04-30T09:10:50.842Z,40.86
2023-04-30T09:11:50.819Z,40.89
2023-04-30T09:12:50.792Z,40.89
2023-04-30T09:13:50.766Z,40.87
2023-04-30T09:14:50.730Z,40.87
2023-04-30T09:15:50.711Z,40.87
2023-04-30T09:16:50.683Z,40.87
2023-04-30T09:17:50.665Z,40.89
2023-04-30T09:18:50.623Z,40.90
2023-04-30T09:19:50.587Z,40.91
2023-04-30T09:20:50.551Z,40.89
2023-04-30T09:21:50.519Z,40.91
2023-04-30T09:22:50.501Z,40.90
2023-04-30T09:23:50.462Z,40.90
2023-04-30T09:24:50.430Z,40.85
2023-04-30T09:25:50.400Z,40.91
2023-04-30T09:26:50.374Z,40.89
2023-04-30T09:27:50.351Z,40.88
2023-04-30T09:28:50.327Z,40.85
2023-04-30T09:29:50.295Z,40.89
2023-04-30T09:30:50.265Z,40.88
2023-04-30T09:31:50.407Z,40.89
2023-04-30T09:32:50.366Z,40.93
2023-04-30T09:33:50.189Z,40.90
2023-04-30T09:34:50.162Z,40.90
2023-04-30T09:35:50.132Z,40.92
2023-04-30T09:36:50.102Z,40.92
2023-04-30T09:37:50.097Z,40.89
2023-04-30T09:38:50.087Z,40.91
2023-04-30T09:39:50.077Z,40.94
2023-04-30T09:40:50.068Z,40.95
2023-04-30T09:41:50.075Z,40.94
2023-04-30T09:42:50.062Z,40.93
2023-04-30T09:43:50.046Z,40.92
2023-04-30T09:44:50.030Z,40.95
2023-04-30T09:45:50.017Z,40.94
2023-04-30T09:46:50.051Z,40.95
2023-04-30T09:47:50.047Z,40.97
2023-04-30T09:48:49.982Z,40.95
2023-04-30T09:49:49.963Z,40.95
2023-04-30T09:50:49.979Z,40.96
2023-04-30T09:51:49.949Z,40.95
2023-04-30T09:52:49.965Z,40.95
2023-04-30T09:53:49.932Z,40.93
2023-04-30T09:54:49.922Z,40.97
2023-04-30T09:55:49.932Z,40.98
2023-04-30T09:56:49.902Z,40.98
2023-04-30T09:57:49.921Z,40.98
2023-04-30T09:58:49.879Z,40.99
2023-04-30T09:59:49.873Z,41.00
2023-04-30T10:00:49.881Z,40.99
2023-04-30T10:01:49.843Z,40.98
2023-04-30T10:02:49.848Z,40.97
2023-04-30T10:03:49.833Z,41.00
2023-04-30T10:04:49.818Z,40.99
2023-04-30T10:05:49.806Z,40.99
2023-04-30T10:06:49.897Z,41.00
2023-04-30T10:07:49.789Z,41.00
2023-04-30T10:08:49.782Z,40.98
2023-04-30T10:09:49.778Z,40.98
2023-04-30T10:10:49.817Z,40.98
2023-04-30T10:11:49.757Z,40.97
2023-04-30T10:12:49.757Z,40.98
2023-04-30T10:13:49.743Z,41.00
2023-04-30T10:14:49.806Z,40.99
2023-04-30T10:15:49.735Z,40.97
2023-04-30T10:16:49.778Z,40.98
2023-04-30T10:17:49.801Z,40.99
2023-04-30T10:18:49.694Z,40.99
2023-04-30T10:19:49.694Z,41.02
2023-04-30T10:20:49.679Z,40.99
2023-04-30T10:21:49.656Z,40.98
2023-04-30T10:22:49.648Z,41.00
2023-04-30T10:23:49.639Z,41.01
2023-04-30T10:24:49.621Z,41.01
2023-04-30T10:25:49.619Z,40.99
2023-04-30T10:26:49.614Z,41.01
2023-04-30T10:27:49.601Z,41.02
2023-04-30T10:28:49.579Z,41.00
2023-04-30T10:29:49.570Z,40.99
2023-04-30T10:30:49.565Z,41.01
2023-04-30T10:31:49.565Z,41.00
2023-04-30T10:32:49.566Z,40.99
2023-04-30T10:33:49.552Z,40.99
2023-04-30T10:34:49.518Z,41.01
2023-04-30T10:35:49.505Z,41.00
2023-04-30T10:36:49.497Z,41.03
2023-04-30T10:37:49.486Z,41.02
2023-04-30T10:38:49.477Z,40.98
2023-04-30T10:39:49.460Z,40.99
2023-04-30T10:40:49.461Z,41.00
2023-04-30T10:41:49.436Z,41.00
2023-04-30T10:42:49.419Z,40.99
2023-04-30T10:43:49.406Z,41.00
2023-04-30T10:44:49.393Z,41.00
2023-04-30T10:45:49.409Z,40.96
2023-04-30T10:46:49.378Z,40.98
2023-04-30T10:47:49.382Z,40.98
2023-04-30T10:48:49.340Z,40.97
2023-04-30T10:49:49.326Z,40.98
2023-04-30T10:50:49.321Z,40.98
2023-04-30T10:51:49.311Z,40.96
2023-04-30T10:52:49.297Z,40.98
2023-04-30T10:53:49.289Z,40.97
2023-04-30T10:54:49.277Z,40.96
2023-04-30T10:55:49.291Z,40.95
2023-04-30T10:56:49.242Z,40.95
2023-04-30T10:57:49.250Z,40.96
2023-04-30T10:58:49.230Z,40.93
2023-04-30T10:59:49.205Z,40.91
2023-04-30T11:00:49.192Z,40.91
2023-04-30T11:01:49.258Z,40.93
2023-04-30T11:02:49.227Z,40.95
2023-04-30T11:03:49.140Z,40.94
2023-04-30T11:04:49.231Z,40.87
2023-04-30T11:05:49.116Z,40.87
2023-04-30T11:06:49.176Z,40.95
2023-04-30T11:07:49.127Z,40.94
2023-04-30T11:08:49.086Z,40.92
2023-04-30T11:09:49.075Z,40.93
2023-04-30T11:10:49.059Z,40.90
2023-04-30T11:11:49.047Z,40.89
2023-04-30T11:12:49.042Z,40.88
2023-04-30T11:13:49.014Z,40.89
2023-04-30T11:14:48.992Z,40.92
2023-04-30T11:15:49.013Z,40.91
2023-04-30T11:16:48.974Z,40.86
2023-04-30T11:17:49.031Z,40.90
2023-04-30T11:18:48.932Z,40.90
2023-04-30T11:19:48.929Z,40.90
2023-04-30T11:20:48.915Z,40.89
2023-04-30T11:21:48.904Z,40.88
2023-04-30T11:22:48.907Z,40.89
2023-04-30T11:23:48.881Z,40.91
2023-04-30T11:24:48.860Z,40.87
2023-04-30T11:25:48.848Z,40.87
2023-04-30T11:26:48.835Z,40.83
2023-04-30T11:27:48.815Z,40.87
2023-04-30T11:28:48.812Z,40.86
2023-04-30T11:29:48.792Z,40.82
2023-04-30T11:30:48.774Z,40.85
2023-04-30T11:31:48.821Z,40.86
2023-04-30T11:32:48.792Z,40.86
2023-04-30T11:33:48.735Z,40.83
2023-04-30T11:34:48.703Z,40.86
2023-04-30T11:35:48.703Z,40.85
2023-04-30T11:36:48.682Z,40.85
2023-04-30T11:37:48.669Z,40.82
2023-04-30T11:38:48.649Z,40.82
2023-04-30T11:39:48.630Z,40.85
2023-04-30T11:40:48.618Z,40.84
2023-04-30T11:41:48.588Z,40.82
2023-04-30T11:42:48.569Z,40.84
2023-04-30T11:43:48.546Z,40.82
2023-04-30T11:44:48.525Z,40.82
2023-04-30T11:45:48.506Z,40.82
2023-04-30T11:46:48.522Z,40.83
2023-04-30T11:47:48.537Z,40.82
2023-04-30T11:48:48.486Z,40.82
2023-04-30T11:49:48.442Z,40.85
2023-04-30T11:50:48.427Z,40.80
2023-04-30T11:51:48.404Z,40.82
2023-04-30T11:52:48.387Z,40.80
2023-04-30T11:53:48.367Z,40.82
2023-04-30T11:54:48.359Z,40.82
2023-04-30T11:55:48.341Z,40.83
2023-04-30T11:56:48.320Z,40.84
2023-04-30T11:57:48.300Z,40.84
2023-04-30T11:58:48.299Z,40.82
2023-04-30T11:59:48.274Z,40.83
2023-04-30T12:00:48.273Z,40.80
2023-04-30T12:01:48.286Z,40.80
2023-04-30T12:02:48.369Z,40.83
2023-04-30T12:03:48.316Z,40.79
2023-04-30T12:04:48.193Z,40.80
2023-04-30T12:05:48.187Z,40.82
2023-04-30T12:06:48.178Z,40.82
2023-04-30T12:07:48.150Z,40.80
2023-04-30T12:08:48.129Z,40.83
2023-04-30T12:09:48.125Z,40.82
2023-04-30T12:10:48.119Z,40.84
2023-04-30T12:11:48.092Z,40.83
2023-04-30T12:12:48.642Z,40.83
2023-04-30T12:13:48.083Z,40.82
2023-04-30T12:14:48.043Z,40.82
2023-04-30T12:15:48.025Z,40.81
2023-04-30T12:16:48.033Z,40.79
2023-04-30T12:17:48.005Z,40.83
2023-04-30T12:18:48.139Z,40.80
2023-04-30T12:19:47.970Z,40.81
2023-04-30T12:20:47.957Z,40.81
2023-04-30T12:21:47.931Z,40.82
2023-04-30T12:22:47.916Z,40.81
2023-04-30T12:23:47.898Z,40.80
2023-04-30T12:24:47.881Z,40.83
2023-04-30T12:25:47.868Z,40.82
2023-04-30T12:26:47.854Z,40.80
2023-04-30T12:27:47.849Z,40.82
2023-04-30T12:28:47.824Z,40.84
2023-04-30T12:29:47.798Z,40.81
2023-04-30T12:30:47.784Z,40.79
2023-04-30T12:31:47.812Z,40.78
2023-04-30T12:32:47.808Z,40.80
2023-04-30T12:33:47.737Z,40.79
2023-04-30T12:34:47.741Z,40.80
2023-04-30T12:35:47.723Z,40.79
2023-04-30T12:36:47.687Z,40.77
2023-04-30T12:37:47.668Z,40.79
2023-04-30T12:38:47.657Z,40.81
2023-04-30T12:39:47.637Z,40.78
2023-04-30T12:40:47.631Z,40.77
2023-04-30T12:41:47.630Z,40.80
2023-04-30T12:42:47.598Z,40.79
2023-04-30T12:43:47.579Z,40.78
2023-04-30T12:44:47.573Z,40.76
2023-04-30T12:45:47.643Z,40.79
2023-04-30T12:46:47.641Z,40.77
2023-04-30T12:47:47.680Z,40.78
2023-04-30T12:48:47.509Z,40.79
2023-04-30T12:49:47.488Z,40.75
2023-04-30T12:50:47.477Z,40.75
2023-04-30T12:51:47.452Z,40.75
2023-04-30T12:52:47.439Z,40.73